createdAt,value
2022-07-29T01:09:51.421Z,1.10
2022-07-29T03:27:38.867Z,1.10
2022-07-29T03:40:12.116Z,1.40
2022-07-29T03:42:47.146Z,1.33
2022-07-29T03:45:19.680Z,1.30
2022-07-29T04:02:54.338Z,1.50
2022-07-29T04:05:24.763Z,1.50
2022-07-29T04:07:55.121Z,1.40
2022-07-29T04:10:30.596Z,1.20
2022-07-29T04:13:02.862Z,1.20
2022-07-29T04:15:33.278Z,1.20
2022-07-29T04:18:06.838Z,1.40
2022-07-29T04:20:37.122Z,1.27
2022-07-29T04:23:07.394Z,1.17
2022-07-29T04:25:37.860Z,1.35
2022-07-29T06:01:11.429Z,1.40
2022-07-29T06:03:42.432Z,1.50
2022-07-29T06:06:12.859Z,1.60
2022-07-29T06:08:43.717Z,1.67
2022-07-29T06:11:14.011Z,1.70
2022-07-29T06:13:44.353Z,1.58
2022-07-29T06:16:28.916Z,1.60
2022-07-29T06:19:00.787Z,1.50
2022-07-29T06:21:31.152Z,1.60
2022-07-29T06:31:37.432Z,1.53
2022-07-29T06:34:07.946Z,1.70
2022-07-29T06:36:41.032Z,1.73
2022-07-29T06:39:12.222Z,1.60
2022-07-29T06:41:42.737Z,1.65
2022-07-29T06:44:13.460Z,1.60
2022-07-29T06:46:48.879Z,1.80
2022-07-29T06:49:19.402Z,1.65
2022-07-29T06:51:49.867Z,2.00
2022-07-29T06:59:26.207Z,1.70
2022-07-29T07:04:34.498Z,1.90
2022-07-29T07:09:40.714Z,2.10
2022-07-29T07:14:42.072Z,1.73
2022-07-29T07:17:12.592Z,1.70
2022-07-29T07:22:16.591Z,1.50
2022-07-29T07:24:46.895Z,1.77
2022-07-29T07:27:17.261Z,1.88
2022-07-29T07:29:47.744Z,1.75
2022-07-29T07:32:18.491Z,1.73
2022-07-29T07:34:49.886Z,1.60
2022-07-29T07:37:23.137Z,1.70
2022-07-29T07:39:53.550Z,1.75
2022-07-29T07:42:23.985Z,1.65
2022-07-29T07:45:12.421Z,1.43
2022-07-29T07:47:44.051Z,1.50
2022-07-29T07:50:19.076Z,1.48
2022-07-29T07:52:58.809Z,1.40
2022-07-29T07:55:42.447Z,1.80
2022-07-29T07:58:19.981Z,1.70
2022-07-29T08:00:50.436Z,1.70
2022-07-29T08:03:20.725Z,1.60
2022-07-29T08:05:52.107Z,1.60
2022-07-29T08:08:24.997Z,1.40
2022-07-29T08:11:02.266Z,1.55
2022-07-29T08:13:35.801Z,1.55
2022-07-29T08:16:12.935Z,1.48
2022-07-29T08:18:44.062Z,1.50
2022-07-29T08:21:14.832Z,1.65
2022-07-29T08:24:00.630Z,1.50
2022-07-29T08:26:32.238Z,1.80
2022-07-29T08:29:02.661Z,1.83
2022-07-29T08:36:34.267Z,2.10
2022-07-29T08:39:07.303Z,1.92
2022-07-29T08:41:37.841Z,1.80
2022-07-29T08:44:08.537Z,2.00
2022-07-29T08:46:42.148Z,2.03
2022-07-29T08:49:19.587Z,2.10
2022-07-29T08:51:50.476Z,2.10
2022-07-29T08:54:24.641Z,1.95
2022-07-29T08:59:27.760Z,2.20
2022-07-29T09:02:00.816Z,1.93
2022-07-29T09:04:35.146Z,2.10
2022-07-29T09:07:09.762Z,2.13
2022-07-29T10:27:47.297Z,2.38
2022-07-29T10:38:02.942Z,2.35
